^^
Grace C. Lehan Memorial Weather Station Historical Data
Daily Summary for July 3, 2021 Units:  Both    English   Metric
Daily Weekly Monthly Yearly
  High: Low: Average:
Temperature: 53.4 °F /  11.9 °C 35.2 °F /  1.8 °C 44.1 °F /  6.7 °C
Dew Point: 37.1 °F /  2.8 °C 30.3 °F /  -0.9 °C 32.9 °F /  0.5 °C
Humidity: 89% 42.8% 66%
Wind Speed: 6mph /  9.7km/h - 0.9mph /  1.4km/h
Wind Gust: 16mph /  25.7km/h - -
Wind- - WNW
Pressure: 30.29 in /  1025.6 hPa 30.14 in /  1020.5 hPa -
Precipitation: 0.00 in /  0 mm    
 
 
Tabular Data for July 3, 2021
Time Temperature Dew Point Pressure Wind Wind Speed Wind Gust Humidity Rainfall Rate (Hourly) solar
00:00 45.4 °F /  7.4 °C 34.7 °F /  1.5 °C 30.14in /  1020.5hPa Calm     66% 0.00in /  0mm 0 W/m2
00:09 45.1 °F /  7.3 °C 34.7 °F /  1.5 °C 30.14in /  1020.5hPa Calm     66.7% 0.00in /  0mm 0 W/m2
00:14 45.1 °F /  7.3 °C 35.2 °F /  1.8 °C 30.14in /  1020.5hPa Calm     68% 0.00in /  0mm 0 W/m2
00:19 45 °F /  7.2 °C 35.1 °F /  1.7 °C 30.14in /  1020.5hPa Calm     68% 0.00in /  0mm 0 W/m2
00:24 44.9 °F /  7.2 °C 35.2 °F /  1.8 °C 30.14in /  1020.5hPa Calm     68.5% 0.00in /  0mm 0 W/m2
00:29 44.8 °F /  7.1 °C 35.1 °F /  1.7 °C 30.14in /  1020.5hPa Calm     68.4% 0.00in /  0mm 0 W/m2
00:34 44.7 °F /  7.1 °C 35 °F /  1.7 °C 30.14in /  1020.5hPa Calm     68.4% 0.00in /  0mm 0 W/m2
00:39 44.6 °F /  7 °C 34.6 °F /  1.4 °C 30.14in /  1020.5hPa Calm     67.6% 0.00in /  0mm 0 W/m2
00:44 44.5 °F /  6.9 °C 35 °F /  1.7 °C 30.14in /  1020.5hPa Calm     69% 0.00in /  0mm 0 W/m2
00:49 44.5 °F /  6.9 °C 35 °F /  1.7 °C 30.14in /  1020.5hPa Calm     69% 0.00in /  0mm 0 W/m2
00:54 44.4 °F /  6.9 °C 34.5 °F /  1.4 °C 30.14in /  1020.5hPa Calm     68.1% 0.00in /  0mm 0 W/m2
00:59 44.3 °F /  6.8 °C 34.5 °F /  1.4 °C 30.14in /  1020.5hPa Calm     68.1% 0.00in /  0mm 0 W/m2
01:04 44.2 °F /  6.8 °C 34.8 °F /  1.6 °C 30.14in /  1020.5hPa Calm     69.2% 0.00in /  0mm 0 W/m2
01:09 44.1 °F /  6.7 °C 34.9 °F /  1.6 °C 30.14in /  1020.5hPa Calm     70% 0.00in /  0mm 0 W/m2
01:14 43.9 °F /  6.6 °C 34.7 °F /  1.5 °C 30.15in /  1020.9hPa Calm     70% 0.00in /  0mm 0 W/m2
01:19 43.7 °F /  6.5 °C 34.6 °F /  1.4 °C 30.15in /  1020.9hPa Calm     70.3% 0.00in /  0mm 0 W/m2
01:24 43.4 °F /  6.3 °C 34.7 °F /  1.5 °C 30.14in /  1020.5hPa Calm     71% 0.00in /  0mm 0 W/m2
01:29 43.2 °F /  6.2 °C 34.5 °F /  1.4 °C 30.15in /  1020.9hPa Calm     71% 0.00in /  0mm 0 W/m2
01:34 43.1 °F /  6.2 °C 34 °F /  1.1 °C 30.14in /  1020.5hPa Calm     70.2% 0.00in /  0mm 0 W/m2
01:39 42.9 °F /  6.1 °C 33.5 °F /  0.8 °C 30.14in /  1020.5hPa Calm     69.1% 0.00in /  0mm 0 W/m2
01:44 42.8 °F /  6 °C 33.4 °F /  0.8 °C 30.15in /  1020.9hPa Calm     69% 0.00in /  0mm 0 W/m2
01:49 42.8 °F /  6 °C 33.4 °F /  0.8 °C 30.15in /  1020.9hPa Calm     69.3% 0.00in /  0mm 0 W/m2
01:54 42.7 °F /  5.9 °C 34.2 °F /  1.2 °C 30.15in /  1020.9hPa Calm     71.7% 0.00in /  0mm 0 W/m2
01:59 42.5 °F /  5.8 °C 34.1 °F /  1.2 °C 30.14in /  1020.5hPa Calm     72% 0.00in /  0mm 0 W/m2
02:04 42.3 °F /  5.7 °C 34.4 °F /  1.3 °C 30.14in /  1020.5hPa Calm     73.4% 0.00in /  0mm 0 W/m2
02:09 42.1 °F /  5.6 °C 34.5 °F /  1.4 °C 30.14in /  1020.5hPa Calm     74.2% 0.00in /  0mm 0 W/m2
02:14 41.9 °F /  5.5 °C 34.5 °F /  1.4 °C 30.14in /  1020.5hPa Calm     74.8% 0.00in /  0mm 0 W/m2
02:19 41.7 °F /  5.4 °C 33.9 °F /  1.1 °C 30.14in /  1020.5hPa Calm     73.6% 0.00in /  0mm 0 W/m2
02:24 41.5 °F /  5.3 °C 33.8 °F /  1 °C 30.14in /  1020.5hPa Calm     74% 0.00in /  0mm 0 W/m2
02:29 41.3 °F /  5.2 °C 34.3 °F /  1.3 °C 30.14in /  1020.5hPa Calm     75.8% 0.00in /  0mm 0 W/m2
02:34 41 °F /  5 °C 34.5 °F /  1.4 °C 30.14in /  1020.5hPa Calm     77.5% 0.00in /  0mm 0 W/m2
02:39 40.7 °F /  4.8 °C 34.1 °F /  1.2 °C 30.14in /  1020.5hPa Calm     77% 0.00in /  0mm 0 W/m2
02:44 40.4 °F /  4.7 °C 34 °F /  1.1 °C 30.15in /  1020.9hPa Calm     77.8% 0.00in /  0mm 0 W/m2
02:49 40.1 °F /  4.5 °C 34.1 °F /  1.2 °C 30.15in /  1020.9hPa Calm     79% 0.00in /  0mm 0 W/m2
02:54 39.7 °F /  4.3 °C 33.8 °F /  1 °C 30.15in /  1020.9hPa Calm     79% 0.00in /  0mm 0 W/m2
02:59 39.5 °F /  4.2 °C 33.6 °F /  0.9 °C 30.15in /  1020.9hPa Calm     79.2% 0.00in /  0mm 0 W/m2
03:04 39.2 °F /  4 °C 33.7 °F /  0.9 °C 30.15in /  1020.9hPa Calm     80.3% 0.00in /  0mm 0 W/m2
03:09 38.9 °F /  3.8 °C 33.7 °F /  0.9 °C 30.15in /  1020.9hPa Calm     81.3% 0.00in /  0mm 0 W/m2
03:14 38.6 °F /  3.7 °C 33.7 °F /  0.9 °C 30.15in /  1020.9hPa Calm     82.3% 0.00in /  0mm 0 W/m2
03:19 38.4 °F /  3.6 °C 33.8 °F /  1 °C 30.15in /  1020.9hPa Calm     83.2% 0.00in /  0mm 0 W/m2
03:24 38.3 °F /  3.5 °C 34 °F /  1.1 °C 30.15in /  1020.9hPa Calm     84.4% 0.00in /  0mm 0 W/m2
03:29 38.3 °F /  3.5 °C 34.2 °F /  1.2 °C 30.15in /  1020.9hPa Calm     85% 0.00in /  0mm 0 W/m2
03:34 38.2 °F /  3.4 °C 34.1 °F /  1.2 °C 30.15in /  1020.9hPa Calm     85% 0.00in /  0mm 0 W/m2
03:39 38.1 °F /  3.4 °C 34 °F /  1.1 °C 30.15in /  1020.9hPa Calm     85% 0.00in /  0mm 0 W/m2
03:44 38.1 °F /  3.4 °C 34 °F /  1.1 °C 30.15in /  1020.9hPa Calm     85% 0.00in /  0mm 0 W/m2
03:49 38 °F /  3.3 °C 33.9 °F /  1.1 °C 30.15in /  1020.9hPa Calm     85% 0.00in /  0mm 0 W/m2
03:54 38 °F /  3.3 °C 33.9 °F /  1.1 °C 30.15in /  1020.9hPa Calm     85% 0.00in /  0mm 0 W/m2
03:59 37.9 °F /  3.3 °C 33.9 °F /  1.1 °C 30.15in /  1020.9hPa Calm     85.2% 0.00in /  0mm 0 W/m2
04:00 37.9 °F /  3.3 °C 34.1 °F /  1.2 °C 30.15in /  1020.9hPa Calm     86% 0.00in /  0mm 0 W/m2
04:09 37.7 °F /  3.2 °C 33.9 °F /  1.1 °C 30.16in /  1021.2hPa Calm   1mph /  1.6km/h 86% 0.00in /  0mm 0 W/m2
04:14 37.7 °F /  3.2 °C 33.9 °F /  1.1 °C 30.16in /  1021.2hPa NW 0.1mph /  0.2km/h 2mph /  3.2km/h 86% 0.00in /  0mm 0 W/m2
04:19 37.5 °F /  3.1 °C 33.7 °F /  0.9 °C 30.16in /  1021.2hPa Calm   2mph /  3.2km/h 86% 0.00in /  0mm 0 W/m2
04:24 37.3 °F /  2.9 °C 33.5 °F /  0.8 °C 30.15in /  1020.9hPa Calm   2mph /  3.2km/h 86% 0.00in /  0mm 0 W/m2
04:29 37.2 °F /  2.9 °C 33.4 °F /  0.8 °C 30.15in /  1020.9hPa Calm   2mph /  3.2km/h 86% 0.00in /  0mm 0 W/m2
04:34 37.1 °F /  2.8 °C 33.3 °F /  0.7 °C 30.15in /  1020.9hPa Calm   2mph /  3.2km/h 86% 0.00in /  0mm 0 W/m2
04:39 37 °F /  2.8 °C 33.2 °F /  0.7 °C 30.16in /  1021.2hPa Calm     86% 0.00in /  0mm 0 W/m2
04:44 37 °F /  2.8 °C 33.2 °F /  0.7 °C 30.16in /  1021.2hPa Calm     86% 0.00in /  0mm 0 W/m2
04:49 36.9 °F /  2.7 °C 33.1 °F /  0.6 °C 30.16in /  1021.2hPa Calm     86% 0.00in /  0mm 0 W/m2
04:54 36.9 °F /  2.7 °C 33.1 °F /  0.6 °C 30.16in /  1021.2hPa Calm     86% 0.00in /  0mm 0 W/m2
04:59 36.9 °F /  2.7 °C 33.1 °F /  0.6 °C 30.16in /  1021.2hPa Calm     86% 0.00in /  0mm 0 W/m2
05:04 36.8 °F /  2.7 °C 33 °F /  0.6 °C 30.16in /  1021.2hPa Calm     86% 0.00in /  0mm 0 W/m2
05:09 36.7 °F /  2.6 °C 32.9 °F /  0.5 °C 30.16in /  1021.2hPa Calm     86% 0.00in /  0mm 0 W/m2
05:14 36.7 °F /  2.6 °C 33.1 °F /  0.6 °C 30.16in /  1021.2hPa Calm     86.9% 0.00in /  0mm 0 W/m2
05:19 36.6 °F /  2.6 °C 33.1 °F /  0.6 °C 30.16in /  1021.2hPa Calm     87% 0.00in /  0mm 0 W/m2
05:24 36.6 °F /  2.6 °C 33.1 °F /  0.6 °C 30.16in /  1021.2hPa Calm     87% 0.00in /  0mm 0 W/m2
05:29 36.6 °F /  2.6 °C 33.1 °F /  0.6 °C 30.16in /  1021.2hPa Calm     87% 0.00in /  0mm 0 W/m2
05:34 36.6 °F /  2.6 °C 33.1 °F /  0.6 °C 30.16in /  1021.2hPa Calm     87% 0.00in /  0mm 0 W/m2
05:39 36.6 °F /  2.6 °C 33.1 °F /  0.6 °C 30.16in /  1021.2hPa Calm     87% 0.00in /  0mm 0 W/m2
05:44 36.6 °F /  2.6 °C 33.1 °F /  0.6 °C 30.16in /  1021.2hPa Calm     87% 0.00in /  0mm 0 W/m2
05:49 36.5 °F /  2.5 °C 33 °F /  0.6 °C 30.16in /  1021.2hPa Calm     87% 0.00in /  0mm 0 W/m2
05:54 36.4 °F /  2.4 °C 32.9 °F /  0.5 °C 30.16in /  1021.2hPa Calm     87% 0.00in /  0mm 0 W/m2
05:59 36.3 °F /  2.4 °C 32.8 °F /  0.4 °C 30.16in /  1021.2hPa Calm     87% 0.00in /  0mm 0 W/m2
06:04 36.2 °F /  2.3 °C 32.7 °F /  0.4 °C 30.16in /  1021.2hPa Calm     87% 0.00in /  0mm 0 W/m2
06:09 36.1 °F /  2.3 °C 32.6 °F /  0.3 °C 30.16in /  1021.2hPa Calm     87% 0.00in /  0mm 0 W/m2
06:14 36.1 °F /  2.3 °C 32.6 °F /  0.3 °C 30.16in /  1021.2hPa Calm     87% 0.00in /  0mm 0 W/m2
06:19 36.1 °F /  2.3 °C 32.4 °F /  0.2 °C 30.16in /  1021.2hPa Calm     86.1% 0.00in /  0mm 0 W/m2
06:24 36.1 °F /  2.3 °C 32.4 °F /  0.2 °C 30.16in /  1021.2hPa Calm     86.4% 0.00in /  0mm 0 W/m2
06:29 36.1 °F /  2.3 °C 32.6 °F /  0.3 °C 30.16in /  1021.2hPa Calm     87% 0.00in /  0mm 0 W/m2
06:34 36.1 °F /  2.3 °C 32.6 °F /  0.3 °C 30.16in /  1021.2hPa Calm     87% 0.00in /  0mm 0 W/m2
06:39 36 °F /  2.2 °C 32.5 °F /  0.3 °C 30.16in /  1021.2hPa Calm     87% 0.00in /  0mm 0 W/m2
06:44 35.9 °F /  2.2 °C 32.5 °F /  0.3 °C 30.16in /  1021.2hPa Calm     87.2% 0.00in /  0mm 0 W/m2
06:49 35.8 °F /  2.1 °C 32.2 °F /  0.1 °C 30.16in /  1021.2hPa Calm     86.5% 0.00in /  0mm 0 W/m2
06:54 35.8 °F /  2.1 °C 32.3 °F /  0.2 °C 30.16in /  1021.2hPa Calm     87% 0.00in /  0mm 0 W/m2
06:59 35.8 °F /  2.1 °C 32.3 °F /  0.2 °C 30.16in /  1021.2hPa Calm     87% 0.00in /  0mm 0 W/m2
07:04 35.8 °F /  2.1 °C 32.3 °F /  0.2 °C 30.16in /  1021.2hPa Calm     87% 0.00in /  0mm 0 W/m2
07:09 35.7 °F /  2.1 °C 32.2 °F /  0.1 °C 30.16in /  1021.2hPa Calm     87% 0.00in /  0mm 0 W/m2
07:14 35.6 °F /  2 °C 32.1 °F /  0.1 °C 30.16in /  1021.2hPa Calm     87% 0.00in /  0mm 0 W/m2
07:19 35.5 °F /  1.9 °C 32 °F /  0 °C 30.16in /  1021.2hPa Calm     87% 0.00in /  0mm 0 W/m2
07:24 35.4 °F /  1.9 °C 31.9 °F /  -0.1 °C 30.16in /  1021.2hPa Calm     87% 0.00in /  0mm 0 W/m2
07:29 35.3 °F /  1.8 °C 32.1 °F /  0.1 °C 30.16in /  1021.2hPa Calm     88% 0.00in /  0mm 5 W/m2
07:34 35.2 °F /  1.8 °C 32 °F /  0 °C 30.16in /  1021.2hPa Calm     88% 0.00in /  0mm 7 W/m2
07:39 35.2 °F /  1.8 °C 32 °F /  0 °C 30.16in /  1021.2hPa Calm     88% 0.00in /  0mm 12 W/m2
07:44 35.2 °F /  1.8 °C 32 °F /  0 °C 30.16in /  1021.2hPa Calm     88% 0.00in /  0mm 14 W/m2
07:49 35.2 °F /  1.8 °C 32.2 °F /  0.1 °C 30.16in /  1021.2hPa Calm     88.4% 0.00in /  0mm 16 W/m2
07:54 35.4 °F /  1.9 °C 32.5 °F /  0.3 °C 30.16in /  1021.2hPa Calm     89% 0.00in /  0mm 21 W/m2
07:59 35.6 °F /  2 °C 32.7 °F /  0.4 °C 30.17in /  1021.6hPa Calm     89% 0.00in /  0mm 21 W/m2
08:00 35.7 °F /  2.1 °C 32.8 °F /  0.4 °C 30.17in /  1021.6hPa Calm     89% 0.00in /  0mm 19 W/m2
08:09 36.1 °F /  2.3 °C 33 °F /  0.6 °C 30.17in /  1021.6hPa Calm     88.3% 0.00in /  0mm 49 W/m2
08:14 36.4 °F /  2.4 °C 33.2 °F /  0.7 °C 30.17in /  1021.6hPa Calm     88% 0.00in /  0mm 51 W/m2
08:19 36.8 °F /  2.7 °C 33.3 °F /  0.7 °C 30.17in /  1021.6hPa Calm     87.2% 0.00in /  0mm 37 W/m2
08:24 37.1 °F /  2.8 °C 33.5 °F /  0.8 °C 30.18in /  1021.9hPa Calm     86.8% 0.00in /  0mm 76 W/m2
08:29 37.4 °F /  3 °C 33.6 °F /  0.9 °C 30.18in /  1021.9hPa Calm     86.2% 0.00in /  0mm 40 W/m2
08:34 37.7 °F /  3.2 °C 33.9 °F /  1.1 °C 30.18in /  1021.9hPa Calm     86% 0.00in /  0mm 56 W/m2
08:39 38.1 °F /  3.4 °C 34.1 °F /  1.2 °C 30.18in /  1021.9hPa Calm     85.3% 0.00in /  0mm 56 W/m2
08:44 38.4 °F /  3.6 °C 34.3 °F /  1.3 °C 30.18in /  1021.9hPa Calm     85% 0.00in /  0mm 76 W/m2
08:49 38.8 °F /  3.8 °C 34.6 °F /  1.4 °C 30.19in /  1022.2hPa Calm     84.8% 0.00in /  0mm 79 W/m2
08:54 39.1 °F /  3.9 °C 34.7 °F /  1.5 °C 30.19in /  1022.2hPa WNW 1mph /  1.6km/h 6mph /  9.7km/h 83.9% 0.00in /  0mm 148 W/m2
08:59 39.7 °F /  4.3 °C 34.8 °F /  1.6 °C 30.19in /  1022.2hPa WNW 0.9mph /  1.4km/h 6mph /  9.7km/h 82.6% 0.00in /  0mm 218 W/m2
09:04 40.5 °F /  4.7 °C 35.2 °F /  1.8 °C 30.19in /  1022.2hPa WNW 0.9mph /  1.4km/h 6mph /  9.7km/h 81.3% 0.00in /  0mm 285 W/m2
09:09 41.6 °F /  5.3 °C 35.5 °F /  1.9 °C 30.19in /  1022.2hPa WNW 1.3mph /  2.1km/h 7mph /  11.3km/h 78.9% 0.00in /  0mm 297 W/m2
09:14 42.8 °F /  6 °C 35.8 °F /  2.1 °C 30.19in /  1022.2hPa WNW 2.3mph /  3.7km/h 7mph /  11.3km/h 76.2% 0.00in /  0mm 309 W/m2
09:19 43.9 °F /  6.6 °C 35.8 °F /  2.1 °C 30.19in /  1022.2hPa WNW 1.6mph /  2.6km/h 9mph /  14.5km/h 73% 0.00in /  0mm 325 W/m2
09:24 44.9 °F /  7.2 °C 36.1 °F /  2.3 °C 30.19in /  1022.2hPa West 1.1mph /  1.8km/h 9mph /  14.5km/h 71.1% 0.00in /  0mm 339 W/m2
09:29 45.7 °F /  7.6 °C 36.2 °F /  2.3 °C 30.19in /  1022.2hPa WNW 1.3mph /  2.1km/h 9mph /  14.5km/h 69.2% 0.00in /  0mm 353 W/m2
09:34 46.5 °F /  8.1 °C 36.4 °F /  2.4 °C 30.19in /  1022.2hPa WNW 1.1mph /  1.8km/h 9mph /  14.5km/h 67.9% 0.00in /  0mm 366 W/m2
09:39 47.1 °F /  8.4 °C 36.3 °F /  2.4 °C 30.19in /  1022.2hPa NW 3mph /  4.8km/h 7mph /  11.3km/h 66.1% 0.00in /  0mm 378 W/m2
09:44 47.5 °F /  8.6 °C 36.3 °F /  2.4 °C 30.20in /  1022.6hPa WNW 2.4mph /  3.9km/h 11mph /  17.7km/h 64.8% 0.00in /  0mm 388 W/m2
09:49 48 °F /  8.9 °C 36.8 °F /  2.7 °C 30.19in /  1022.2hPa WNW 0.8mph /  1.3km/h 11mph /  17.7km/h 65% 0.00in /  0mm 399 W/m2
09:54 48.6 °F /  9.2 °C 37.1 °F /  2.8 °C 30.19in /  1022.2hPa WNW 1.5mph /  2.4km/h 11mph /  17.7km/h 64.3% 0.00in /  0mm 406 W/m2
09:59 49.2 °F /  9.6 °C 36.7 °F /  2.6 °C 30.20in /  1022.6hPa WNW 2.2mph /  3.5km/h 11mph /  17.7km/h 62.1% 0.00in /  0mm 417 W/m2
10:04 49.5 °F /  9.7 °C 36.7 °F /  2.6 °C 30.20in /  1022.6hPa WNW 2mph /  3.2km/h 11mph /  17.7km/h 61.1% 0.00in /  0mm 429 W/m2
10:09 49.9 °F /  9.9 °C 36.8 °F /  2.7 °C 30.19in /  1022.2hPa WNW 2.4mph /  3.9km/h 9mph /  14.5km/h 60.4% 0.00in /  0mm 439 W/m2
10:14 50.1 °F /  10.1 °C 36.1 °F /  2.3 °C 30.20in /  1022.6hPa WNW 3.3mph /  5.3km/h 10mph /  16.1km/h 58.3% 0.00in /  0mm 446 W/m2
10:19 50.1 °F /  10.1 °C 36 °F /  2.2 °C 30.20in /  1022.6hPa WNW 2.6mph /  4.2km/h 10mph /  16.1km/h 58.1% 0.00in /  0mm 436 W/m2
10:24 49.8 °F /  9.9 °C 35.5 °F /  1.9 °C 30.20in /  1022.6hPa NW 2.2mph /  3.5km/h 11mph /  17.7km/h 57.8% 0.00in /  0mm 153 W/m2
10:29 49.5 °F /  9.7 °C 35.7 °F /  2.1 °C 30.20in /  1022.6hPa NW 1.4mph /  2.3km/h 11mph /  17.7km/h 58.9% 0.00in /  0mm 476 W/m2
10:34 49.4 °F /  9.7 °C 35.5 °F /  1.9 °C 30.20in /  1022.6hPa WNW 3.7mph /  6km/h 12mph /  19.3km/h 58.6% 0.00in /  0mm 490 W/m2
10:39 49.4 °F /  9.7 °C 35.5 °F /  1.9 °C 30.19in /  1022.2hPa WNW 1.5mph /  2.4km/h 12mph /  19.3km/h 58.5% 0.00in /  0mm 499 W/m2
10:44 49.5 °F /  9.7 °C 35.6 °F /  2 °C 30.19in /  1022.2hPa West 0.8mph /  1.3km/h 12mph /  19.3km/h 58.5% 0.00in /  0mm 503 W/m2
10:49 49.7 °F /  9.8 °C 35.6 °F /  2 °C 30.19in /  1022.2hPa WNW 2.1mph /  3.4km/h 12mph /  19.3km/h 58.1% 0.00in /  0mm 515 W/m2
10:54 50 °F /  10 °C 35.8 °F /  2.1 °C 30.20in /  1022.6hPa NW 0.6mph /  1km/h 12mph /  19.3km/h 58% 0.00in /  0mm 517 W/m2
10:59 50.3 °F /  10.2 °C 35.7 °F /  2.1 °C 30.20in /  1022.6hPa NW 3.1mph /  5km/h 12mph /  19.3km/h 57.2% 0.00in /  0mm 432 W/m2
11:04 50.3 °F /  10.2 °C 34.6 °F /  1.4 °C 30.20in /  1022.6hPa WNW 5.3mph /  8.5km/h 14mph /  22.5km/h 54.7% 0.00in /  0mm 538 W/m2
11:09 50.1 °F /  10.1 °C 34.8 °F /  1.6 °C 30.19in /  1022.2hPa WNW 1.6mph /  2.6km/h 14mph /  22.5km/h 55.4% 0.00in /  0mm 543 W/m2
11:14 50.5 °F /  10.3 °C 35.1 °F /  1.7 °C 30.20in /  1022.6hPa WNW 6mph /  9.7km/h 14mph /  22.5km/h 55.3% 0.00in /  0mm 552 W/m2
11:19 50.8 °F /  10.4 °C 34.3 °F /  1.3 °C 30.20in /  1022.6hPa WNW 3.1mph /  5km/h 14mph /  22.5km/h 53% 0.00in /  0mm 557 W/m2
11:24 51.1 °F /  10.6 °C 34.8 °F /  1.6 °C 30.20in /  1022.6hPa NW 2.8mph /  4.5km/h 14mph /  22.5km/h 53.5% 0.00in /  0mm 561 W/m2
11:29 51.5 °F /  10.8 °C 35.2 °F /  1.8 °C 30.20in /  1022.6hPa WNW 3.2mph /  5.1km/h 14mph /  22.5km/h 53.5% 0.00in /  0mm 568 W/m2
11:34 51.8 °F /  11 °C 35 °F /  1.7 °C 30.20in /  1022.6hPa NW 3.5mph /  5.6km/h 14mph /  22.5km/h 52.5% 0.00in /  0mm 577 W/m2
11:39 52.2 °F /  11.2 °C 35.4 °F /  1.9 °C 30.20in /  1022.6hPa NW 2.3mph /  3.7km/h 13mph /  20.9km/h 52.6% 0.00in /  0mm 582 W/m2
11:44 52.6 °F /  11.4 °C 35.5 °F /  1.9 °C 30.19in /  1022.2hPa NW 2.4mph /  3.9km/h 13mph /  20.9km/h 52% 0.00in /  0mm 552 W/m2
11:49 53 °F /  11.7 °C 35.6 °F /  2 °C 30.19in /  1022.2hPa WNW 2.8mph /  4.5km/h 14mph /  22.5km/h 51.5% 0.00in /  0mm 543 W/m2
11:54 53 °F /  11.7 °C 34.3 °F /  1.3 °C 30.19in /  1022.2hPa WNW 4.4mph /  7.1km/h 16mph /  25.7km/h 48.9% 0.00in /  0mm 543 W/m2
11:59 52.5 °F /  11.4 °C 34 °F /  1.1 °C 30.19in /  1022.2hPa WNW 3.2mph /  5.1km/h 16mph /  25.7km/h 49.1% 0.00in /  0mm 181 W/m2
12:09 51.8 °F /  11 °C 34.3 °F /  1.3 °C 30.19in /  1022.2hPa WNW 1.5mph /  2.4km/h 11mph /  17.7km/h 51% 0.00in /  0mm 202 W/m2
12:14 51.8 °F /  11 °C 33.7 °F /  0.9 °C 30.18in /  1021.9hPa West 2.9mph /  4.7km/h 12mph /  19.3km/h 49.8% 0.00in /  0mm 381 W/m2
12:19 51.9 °F /  11.1 °C 33.8 °F /  1 °C 30.19in /  1022.2hPa West 2.1mph /  3.4km/h 12mph /  19.3km/h 49.9% 0.00in /  0mm 381 W/m2
12:24 52.1 °F /  11.2 °C 33.6 °F /  0.9 °C 30.19in /  1022.2hPa NW 1.7mph /  2.7km/h 12mph /  19.3km/h 49.3% 0.00in /  0mm 151 W/m2
12:29 52.2 °F /  11.2 °C 33.6 °F /  0.9 °C 30.18in /  1021.9hPa NW 2mph /  3.2km/h 12mph /  19.3km/h 48.9% 0.00in /  0mm 283 W/m2
12:34 52.3 °F /  11.3 °C 33.2 °F /  0.7 °C 30.18in /  1021.9hPa NW 4.8mph /  7.7km/h 12mph /  19.3km/h 47.9% 0.00in /  0mm 127 W/m2
12:39 52.4 °F /  11.3 °C 32.9 °F /  0.5 °C 30.18in /  1021.9hPa WNW 1.6mph /  2.6km/h 12mph /  19.3km/h 47.2% 0.00in /  0mm 209 W/m2
12:44 52.6 °F /  11.4 °C 33.2 °F /  0.7 °C 30.18in /  1021.9hPa NW 2mph /  3.2km/h 12mph /  19.3km/h 47.4% 0.00in /  0mm 339 W/m2
12:49 52.8 °F /  11.6 °C 32.5 °F /  0.3 °C 30.18in /  1021.9hPa NW 3.9mph /  6.3km/h 13mph /  20.9km/h 45.8% 0.00in /  0mm 190 W/m2
12:54 52.6 °F /  11.4 °C 31.3 °F /  -0.4 °C 30.17in /  1021.6hPa NW 4.2mph /  6.8km/h 13mph /  20.9km/h 43.9% 0.00in /  0mm 172 W/m2
12:59 52.2 °F /  11.2 °C 31 °F /  -0.6 °C 30.17in /  1021.6hPa WNW 4mph /  6.4km/h 13mph /  20.9km/h 44.1% 0.00in /  0mm 306 W/m2
13:04 52 °F /  11.1 °C 31 °F /  -0.6 °C 30.17in /  1021.6hPa NW 4.6mph /  7.4km/h 13mph /  20.9km/h 44.4% 0.00in /  0mm 547 W/m2
13:09 52 °F /  11.1 °C 31 °F /  -0.6 °C 30.17in /  1021.6hPa NW 1.6mph /  2.6km/h 11mph /  17.7km/h 44.4% 0.00in /  0mm 455 W/m2
13:14 52.2 °F /  11.2 °C 31.8 °F /  -0.1 °C 30.17in /  1021.6hPa WNW 3mph /  4.8km/h 11mph /  17.7km/h 45.5% 0.00in /  0mm 385 W/m2
13:19 52.4 °F /  11.3 °C 32.2 °F /  0.1 °C 30.16in /  1021.2hPa WNW 2.4mph /  3.9km/h 13mph /  20.9km/h 45.8% 0.00in /  0mm 422 W/m2
13:24 52.7 °F /  11.5 °C 32.1 °F /  0.1 °C 30.16in /  1021.2hPa NNW 1.2mph /  1.9km/h 13mph /  20.9km/h 45.2% 0.00in /  0mm 517 W/m2
13:29 53.1 °F /  11.7 °C 32.3 °F /  0.2 °C 30.16in /  1021.2hPa WNW 4mph /  6.4km/h 13mph /  20.9km/h 44.9% 0.00in /  0mm 594 W/m2
13:34 53.4 °F /  11.9 °C 31.6 °F /  -0.2 °C 30.16in /  1021.2hPa NW 4mph /  6.4km/h 14mph /  22.5km/h 43.1% 0.00in /  0mm 527 W/m2
13:39 53.3 °F /  11.8 °C 31.4 °F /  -0.3 °C 30.16in /  1021.2hPa NW 4.5mph /  7.2km/h 14mph /  22.5km/h 43% 0.00in /  0mm 83 W/m2
13:44 53.2 °F /  11.8 °C 32.2 °F /  0.1 °C 30.16in /  1021.2hPa NW 2.3mph /  3.7km/h 14mph /  22.5km/h 44.5% 0.00in /  0mm 309 W/m2
13:49 53.2 °F /  11.8 °C 32.2 °F /  0.1 °C 30.15in /  1020.9hPa NW 2.8mph /  4.5km/h 14mph /  22.5km/h 44.5% 0.00in /  0mm 334 W/m2
13:54 53.2 °F /  11.8 °C 31.8 °F /  -0.1 °C 30.15in /  1020.9hPa WNW 3.5mph /  5.6km/h 14mph /  22.5km/h 43.9% 0.00in /  0mm 506 W/m2
13:59 53.3 °F /  11.8 °C 31.7 °F /  -0.2 °C 30.15in /  1020.9hPa NW 3.7mph /  6km/h 14mph /  22.5km/h 43.6% 0.00in /  0mm 534 W/m2
14:04 53.3 °F /  11.8 °C 31.8 °F /  -0.1 °C 30.15in /  1020.9hPa NW 4.2mph /  6.8km/h 15mph /  24.1km/h 43.7% 0.00in /  0mm 70 W/m2
14:09 53.2 °F /  11.8 °C 31.8 °F /  -0.1 °C 30.15in /  1020.9hPa NW 5.2mph /  8.4km/h 15mph /  24.1km/h 44% 0.00in /  0mm 269 W/m2
14:14 52.9 °F /  11.6 °C 32.2 °F /  0.1 °C 30.15in /  1020.9hPa NW 2.6mph /  4.2km/h 15mph /  24.1km/h 45% 0.00in /  0mm 221 W/m2
14:19 52.9 °F /  11.6 °C 32 °F /  0 °C 30.15in /  1020.9hPa NW 4.8mph /  7.7km/h 15mph /  24.1km/h 44.8% 0.00in /  0mm 221 W/m2
14:24 52.7 °F /  11.5 °C 31.9 °F /  -0.1 °C 30.15in /  1020.9hPa NW 2.7mph /  4.3km/h 15mph /  24.1km/h 44.8% 0.00in /  0mm 243 W/m2
14:29 52.6 °F /  11.4 °C 32 °F /  0 °C 30.15in /  1020.9hPa NW 1.6mph /  2.6km/h 15mph /  24.1km/h 45.3% 0.00in /  0mm 359 W/m2
14:34 52.8 °F /  11.6 °C 32.6 °F /  0.3 °C 30.15in /  1020.9hPa West 1.6mph /  2.6km/h 15mph /  24.1km/h 46% 0.00in /  0mm 487 W/m2
14:39 53.1 °F /  11.7 °C 32.1 °F /  0.1 °C 30.15in /  1020.9hPa WNW 3.9mph /  6.3km/h 9mph /  14.5km/h 44.6% 0.00in /  0mm 478 W/m2
14:44 53.1 °F /  11.7 °C 31.8 °F /  -0.1 °C 30.16in /  1021.2hPa WNW 2.3mph /  3.7km/h 10mph /  16.1km/h 44% 0.00in /  0mm 160 W/m2
14:49 52.9 °F /  11.6 °C 31.1 °F /  -0.5 °C 30.16in /  1021.2hPa WNW 2.8mph /  4.5km/h 10mph /  16.1km/h 43.1% 0.00in /  0mm 148 W/m2
14:54 52.8 °F /  11.6 °C 30.8 °F /  -0.7 °C 30.16in /  1021.2hPa NW 3.2mph /  5.1km/h 10mph /  16.1km/h 42.8% 0.00in /  0mm 116 W/m2
14:59 52.7 °F /  11.5 °C 31.4 °F /  -0.3 °C 30.16in /  1021.2hPa NNW 1.6mph /  2.6km/h 10mph /  16.1km/h 44% 0.00in /  0mm 114 W/m2
15:04 52.7 °F /  11.5 °C 31.1 °F /  -0.5 °C 30.16in /  1021.2hPa WNW 4.1mph /  6.6km/h 14mph /  22.5km/h 43.4% 0.00in /  0mm 40 W/m2
15:09 52.4 °F /  11.3 °C 31.1 °F /  -0.5 °C 30.16in /  1021.2hPa NW 0.4mph /  0.6km/h 14mph /  22.5km/h 43.8% 0.00in /  0mm 58 W/m2
15:14 52.1 °F /  11.2 °C 31.6 °F /  -0.2 °C 30.16in /  1021.2hPa WNW 2.2mph /  3.5km/h 14mph /  22.5km/h 45.4% 0.00in /  0mm 33 W/m2
15:19 51.6 °F /  10.9 °C 30.9 °F /  -0.6 °C 30.16in /  1021.2hPa WNW 2.1mph /  3.4km/h 14mph /  22.5km/h 45% 0.00in /  0mm 320 W/m2
15:24 51.2 °F /  10.7 °C 30.5 °F /  -0.8 °C 30.16in /  1021.2hPa WNW 3.8mph /  6.1km/h 14mph /  22.5km/h 44.7% 0.00in /  0mm 320 W/m2
15:29 51 °F /  10.6 °C 30.3 °F /  -0.9 °C 30.16in /  1021.2hPa WNW 2.1mph /  3.4km/h 14mph /  22.5km/h 44.8% 0.00in /  0mm 30 W/m2
15:34 50.8 °F /  10.4 °C 30.5 °F /  -0.8 °C 30.16in /  1021.2hPa WNW 2.5mph /  4km/h 14mph /  22.5km/h 45.5% 0.00in /  0mm 40 W/m2
15:39 50.7 °F /  10.4 °C 31.3 °F /  -0.4 °C 30.16in /  1021.2hPa West 1.9mph /  3.1km/h 10mph /  16.1km/h 47.1% 0.00in /  0mm 37 W/m2
15:44 50.8 °F /  10.4 °C 30.8 °F /  -0.7 °C 30.16in /  1021.2hPa WNW 2.7mph /  4.3km/h 10mph /  16.1km/h 46.1% 0.00in /  0mm 39 W/m2
15:49 50.9 °F /  10.5 °C 30.9 °F /  -0.6 °C 30.16in /  1021.2hPa West 2.1mph /  3.4km/h 10mph /  16.1km/h 46% 0.00in /  0mm 42 W/m2
15:54 51.1 °F /  10.6 °C 30.7 °F /  -0.7 °C 30.16in /  1021.2hPa West 1.8mph /  2.9km/h 10mph /  16.1km/h 45.3% 0.00in /  0mm 58 W/m2
15:59 51.3 °F /  10.7 °C 30.9 °F /  -0.6 °C 30.16in /  1021.2hPa WNW 0.6mph /  1km/h 10mph /  16.1km/h 45.4% 0.00in /  0mm 58 W/m2
16:00 51.3 °F /  10.7 °C 31.2 °F /  -0.4 °C 30.16in /  1021.2hPa Calm   10mph /  16.1km/h 46% 0.00in /  0mm 40 W/m2
16:09 51.4 °F /  10.8 °C 31.2 °F /  -0.4 °C 30.16in /  1021.2hPa WNW 1.7mph /  2.7km/h 9mph /  14.5km/h 45.9% 0.00in /  0mm 51 W/m2
16:14 51.4 °F /  10.8 °C 31.4 °F /  -0.3 °C 30.16in /  1021.2hPa WSW 1.6mph /  2.6km/h 9mph /  14.5km/h 46% 0.00in /  0mm 72 W/m2
16:19 51.5 °F /  10.8 °C 31.3 °F /  -0.4 °C 30.16in /  1021.2hPa SW 0.8mph /  1.3km/h 9mph /  14.5km/h 45.8% 0.00in /  0mm 72 W/m2
16:24 51.6 °F /  10.9 °C 31.4 °F /  -0.3 °C 30.16in /  1021.2hPa SW 0.4mph /  0.6km/h 9mph /  14.5km/h 45.8% 0.00in /  0mm 70 W/m2
16:29 51.7 °F /  10.9 °C 31.6 °F /  -0.2 °C 30.16in /  1021.2hPa WNW 2.5mph /  4km/h 9mph /  14.5km/h 46% 0.00in /  0mm 63 W/m2
16:34 51.7 °F /  10.9 °C 30.9 °F /  -0.6 °C 30.17in /  1021.6hPa WNW 1.2mph /  1.9km/h 9mph /  14.5km/h 44.8% 0.00in /  0mm 46 W/m2
16:39 51.6 °F /  10.9 °C 30.8 °F /  -0.7 °C 30.17in /  1021.6hPa WNW 2.8mph /  4.5km/h 11mph /  17.7km/h 44.7% 0.00in /  0mm 30 W/m2
16:44 51.4 °F /  10.8 °C 30.3 °F /  -0.9 °C 30.17in /  1021.6hPa WNW 2.8mph /  4.5km/h 11mph /  17.7km/h 44.2% 0.00in /  0mm 23 W/m2
16:49 51.1 °F /  10.6 °C 30.8 °F /  -0.7 °C 30.17in /  1021.6hPa NW 1.3mph /  2.1km/h 11mph /  17.7km/h 45.6% 0.00in /  0mm 19 W/m2
16:54 50.8 °F /  10.4 °C 30.7 °F /  -0.7 °C 30.17in /  1021.6hPa WNW 1.4mph /  2.3km/h 11mph /  17.7km/h 46% 0.00in /  0mm 19 W/m2
16:59 50.5 °F /  10.3 °C 30.5 °F /  -0.8 °C 30.17in /  1021.6hPa NW 1.8mph /  2.9km/h 11mph /  17.7km/h 46% 0.00in /  0mm 18 W/m2
17:04 50.4 °F /  10.2 °C 30.7 °F /  -0.7 °C 30.17in /  1021.6hPa NW 0.3mph /  0.5km/h 11mph /  17.7km/h 46.5% 0.00in /  0mm 16 W/m2
17:09 50.2 °F /  10.1 °C 31 °F /  -0.6 °C 30.17in /  1021.6hPa WNW 2.1mph /  3.4km/h 11mph /  17.7km/h 47.4% 0.00in /  0mm 14 W/m2
17:14 50 °F /  10 °C 30.9 °F /  -0.6 °C 30.17in /  1021.6hPa NW 1.2mph /  1.9km/h 11mph /  17.7km/h 47.7% 0.00in /  0mm 12 W/m2
17:19 49.8 °F /  9.9 °C 30.9 °F /  -0.6 °C 30.18in /  1021.9hPa NW 1.5mph /  2.4km/h 11mph /  17.7km/h 48% 0.00in /  0mm 14 W/m2
17:24 49.6 °F /  9.8 °C 31.2 °F /  -0.4 °C 30.18in /  1021.9hPa Calm   11mph /  17.7km/h 49.1% 0.00in /  0mm 14 W/m2
17:29 49.4 °F /  9.7 °C 31.5 °F /  -0.3 °C 30.18in /  1021.9hPa Calm   11mph /  17.7km/h 50% 0.00in /  0mm 14 W/m2
17:34 49.2 °F /  9.6 °C 31.5 °F /  -0.3 °C 30.18in /  1021.9hPa NW 0.2mph /  0.3km/h 11mph /  17.7km/h 50.2% 0.00in /  0mm 9 W/m2
17:39 49 °F /  9.4 °C 31.7 °F /  -0.2 °C 30.19in /  1022.2hPa NW 0.2mph /  0.3km/h 2mph /  3.2km/h 51% 0.00in /  0mm 5 W/m2
17:44 48.8 °F /  9.3 °C 31.9 °F /  -0.1 °C 30.19in /  1022.2hPa NW 0.1mph /  0.2km/h 2mph /  3.2km/h 51.8% 0.00in /  0mm 0 W/m2
17:49 48.5 °F /  9.2 °C 31.6 °F /  -0.2 °C 30.19in /  1022.2hPa NW 0.6mph /  1km/h 4mph /  6.4km/h 51.8% 0.00in /  0mm 0 W/m2
17:54 48.2 °F /  9 °C 31.5 °F /  -0.3 °C 30.19in /  1022.2hPa Calm   4mph /  6.4km/h 52.2% 0.00in /  0mm 0 W/m2
17:59 48 °F /  8.9 °C 31.7 °F /  -0.2 °C 30.19in /  1022.2hPa NW 0.1mph /  0.2km/h 4mph /  6.4km/h 53% 0.00in /  0mm 0 W/m2
18:04 47.7 °F /  8.7 °C 31.5 °F /  -0.3 °C 30.19in /  1022.2hPa Calm   4mph /  6.4km/h 53% 0.00in /  0mm 0 W/m2
18:09 47.5 °F /  8.6 °C 31.3 °F /  -0.4 °C 30.20in /  1022.6hPa Calm   1mph /  1.6km/h 53.2% 0.00in /  0mm 0 W/m2
18:14 47.3 °F /  8.5 °C 31.5 °F /  -0.3 °C 30.20in /  1022.6hPa Calm   1mph /  1.6km/h 54% 0.00in /  0mm 0 W/m2
18:19 47 °F /  8.3 °C 31.3 °F /  -0.4 °C 30.20in /  1022.6hPa Calm   1mph /  1.6km/h 54.2% 0.00in /  0mm 0 W/m2
18:24 46.7 °F /  8.2 °C 31.4 °F /  -0.3 °C 30.20in /  1022.6hPa Calm   1mph /  1.6km/h 55% 0.00in /  0mm 0 W/m2
18:29 46.5 °F /  8.1 °C 31.4 °F /  -0.3 °C 30.20in /  1022.6hPa Calm   1mph /  1.6km/h 55.4% 0.00in /  0mm 0 W/m2
18:34 46.2 °F /  7.9 °C 31.4 °F /  -0.3 °C 30.21in /  1022.9hPa Calm   1mph /  1.6km/h 56% 0.00in /  0mm 0 W/m2
18:39 46 °F /  7.8 °C 31.6 °F /  -0.2 °C 30.21in /  1022.9hPa Calm   1mph /  1.6km/h 57% 0.00in /  0mm 0 W/m2
18:44 45.7 °F /  7.6 °C 31.8 °F /  -0.1 °C 30.21in /  1022.9hPa Calm   1mph /  1.6km/h 58% 0.00in /  0mm 0 W/m2
18:49 45.4 °F /  7.4 °C 32 °F /  0 °C 30.21in /  1022.9hPa Calm   1mph /  1.6km/h 59.2% 0.00in /  0mm 0 W/m2
18:54 45.1 °F /  7.3 °C 32 °F /  0 °C 30.22in /  1023.2hPa Calm   1mph /  1.6km/h 59.8% 0.00in /  0mm 0 W/m2
18:59 44.8 °F /  7.1 °C 31.9 °F /  -0.1 °C 30.21in /  1022.9hPa Calm   1mph /  1.6km/h 60.3% 0.00in /  0mm 0 W/m2
19:04 44.5 °F /  6.9 °C 31.9 °F /  -0.1 °C 30.22in /  1023.2hPa Calm   1mph /  1.6km/h 61% 0.00in /  0mm 0 W/m2
19:09 44.2 °F /  6.8 °C 31.8 °F /  -0.1 °C 30.22in /  1023.2hPa Calm     61.4% 0.00in /  0mm 0 W/m2
19:14 44 °F /  6.7 °C 32 °F /  0 °C 30.22in /  1023.2hPa Calm     62.5% 0.00in /  0mm 0 W/m2
19:19 43.7 °F /  6.5 °C 31.9 °F /  -0.1 °C 30.22in /  1023.2hPa Calm     63% 0.00in /  0mm 0 W/m2
19:24 43.5 °F /  6.4 °C 32 °F /  0 °C 30.22in /  1023.2hPa Calm   3mph /  4.8km/h 63.7% 0.00in /  0mm 0 W/m2
19:29 43.2 °F /  6.2 °C 31.9 °F /  -0.1 °C 30.23in /  1023.6hPa NW 0.1mph /  0.2km/h 3mph /  4.8km/h 64% 0.00in /  0mm 0 W/m2
19:34 43 °F /  6.1 °C 31.7 °F /  -0.2 °C 30.23in /  1023.6hPa Calm   3mph /  4.8km/h 64% 0.00in /  0mm 0 W/m2
19:39 42.9 °F /  6.1 °C 31.5 °F /  -0.3 °C 30.23in /  1023.6hPa Calm     64% 0.00in /  0mm 0 W/m2
19:44 42.8 °F /  6 °C 31.7 °F /  -0.2 °C 30.23in /  1023.6hPa Calm     64.6% 0.00in /  0mm 0 W/m2
19:49 42.7 °F /  5.9 °C 31.7 °F /  -0.2 °C 30.23in /  1023.6hPa Calm     65% 0.00in /  0mm 0 W/m2
19:54 42.5 °F /  5.8 °C 31.6 °F /  -0.2 °C 30.24in /  1023.9hPa Calm     65% 0.00in /  0mm 0 W/m2
19:59 42.4 °F /  5.8 °C 31.5 °F /  -0.3 °C 30.24in /  1023.9hPa Calm     65% 0.00in /  0mm 0 W/m2
20:00 42.3 °F /  5.7 °C 31.4 °F /  -0.3 °C 30.24in /  1023.9hPa Calm     65% 0.00in /  0mm 0 W/m2
20:09 42.1 °F /  5.6 °C 31.2 °F /  -0.4 °C 30.24in /  1023.9hPa Calm     65% 0.00in /  0mm 0 W/m2
20:14 42 °F /  5.6 °C 31.1 °F /  -0.5 °C 30.24in /  1023.9hPa Calm     65% 0.00in /  0mm 0 W/m2
20:19 41.9 °F /  5.5 °C 30.9 °F /  -0.6 °C 30.24in /  1023.9hPa Calm     64.7% 0.00in /  0mm 0 W/m2
20:24 41.8 °F /  5.4 °C 30.5 °F /  -0.8 °C 30.24in /  1023.9hPa Calm     64% 0.00in /  0mm 0 W/m2
20:29 41.8 °F /  5.4 °C 30.9 °F /  -0.6 °C 30.24in /  1023.9hPa Calm     65.2% 0.00in /  0mm 0 W/m2
20:34 41.6 °F /  5.3 °C 31.1 °F /  -0.5 °C 30.25in /  1024.3hPa Calm     66% 0.00in /  0mm 0 W/m2
20:39 41.5 °F /  5.3 °C 31 °F /  -0.6 °C 30.24in /  1023.9hPa Calm     66% 0.00in /  0mm 0 W/m2
20:44 41.4 °F /  5.2 °C 31.3 °F /  -0.4 °C 30.24in /  1023.9hPa Calm     67.1% 0.00in /  0mm 0 W/m2
20:49 41.2 °F /  5.1 °C 31.7 °F /  -0.2 °C 30.25in /  1024.3hPa Calm     68.8% 0.00in /  0mm 0 W/m2
20:54 41 °F /  5 °C 31.3 °F /  -0.4 °C 30.25in /  1024.3hPa Calm     68.2% 0.00in /  0mm 0 W/m2
20:59 40.8 °F /  4.9 °C 31.1 °F /  -0.5 °C 30.25in /  1024.3hPa Calm     68% 0.00in /  0mm 0 W/m2
21:04 40.7 °F /  4.8 °C 30.9 °F /  -0.6 °C 30.25in /  1024.3hPa Calm     68% 0.00in /  0mm 0 W/m2
21:09 40.5 °F /  4.7 °C 30.8 °F /  -0.7 °C 30.25in /  1024.3hPa Calm     68% 0.00in /  0mm 0 W/m2
21:14 40.4 °F /  4.7 °C 31 °F /  -0.6 °C 30.25in /  1024.3hPa Calm     68.8% 0.00in /  0mm 0 W/m2
21:19 40.2 °F /  4.6 °C 31.6 °F /  -0.2 °C 30.25in /  1024.3hPa Calm     70.9% 0.00in /  0mm 0 W/m2
21:24 40.1 °F /  4.5 °C 31.8 °F /  -0.1 °C 30.25in /  1024.3hPa Calm     72% 0.00in /  0mm 0 W/m2
21:29 39.9 °F /  4.4 °C 31.3 °F /  -0.4 °C 30.25in /  1024.3hPa NW 0.2mph /  0.3km/h 2mph /  3.2km/h 71.1% 0.00in /  0mm 0 W/m2
21:34 39.8 °F /  4.3 °C 31.2 °F /  -0.4 °C 30.26in /  1024.6hPa Calm   2mph /  3.2km/h 71% 0.00in /  0mm 0 W/m2
21:39 39.9 °F /  4.4 °C 31.2 °F /  -0.4 °C 30.26in /  1024.6hPa Calm     71% 0.00in /  0mm 0 W/m2
21:44 39.9 °F /  4.4 °C 31.3 °F /  -0.4 °C 30.26in /  1024.6hPa Calm     71% 0.00in /  0mm 0 W/m2
21:49 40 °F /  4.4 °C 31.6 °F /  -0.2 °C 30.26in /  1024.6hPa Calm     71.7% 0.00in /  0mm 0 W/m2
21:54 40 °F /  4.4 °C 31.6 °F /  -0.2 °C 30.26in /  1024.6hPa Calm     71.7% 0.00in /  0mm 0 W/m2
21:59 39.9 °F /  4.4 °C 31.3 °F /  -0.4 °C 30.26in /  1024.6hPa Calm     71.2% 0.00in /  0mm 0 W/m2
22:04 39.9 °F /  4.4 °C 31.2 °F /  -0.4 °C 30.26in /  1024.6hPa Calm     71% 0.00in /  0mm 0 W/m2
22:09 39.9 °F /  4.4 °C 31.3 °F /  -0.4 °C 30.27in /  1024.9hPa NW 0.1mph /  0.2km/h 2mph /  3.2km/h 71% 0.00in /  0mm 0 W/m2
22:14 40 °F /  4.4 °C 31.4 °F /  -0.3 °C 30.27in /  1024.9hPa NW 0.2mph /  0.3km/h 3mph /  4.8km/h 71.2% 0.00in /  0mm 0 W/m2
22:19 40 °F /  4.4 °C 31.7 °F /  -0.2 °C 30.27in /  1024.9hPa NW 1mph /  1.6km/h 5mph /  8km/h 71.9% 0.00in /  0mm 0 W/m2
22:24 40.2 °F /  4.6 °C 31.7 °F /  -0.2 °C 30.27in /  1024.9hPa NW 0.5mph /  0.8km/h 5mph /  8km/h 71.5% 0.00in /  0mm 0 W/m2
22:29 40.2 °F /  4.6 °C 31.9 °F /  -0.1 °C 30.27in /  1024.9hPa NW 0.7mph /  1.1km/h 6mph /  9.7km/h 72% 0.00in /  0mm 0 W/m2
22:34 40.3 °F /  4.6 °C 31.7 °F /  -0.2 °C 30.27in /  1024.9hPa NW 0.8mph /  1.3km/h 6mph /  9.7km/h 71.2% 0.00in /  0mm 0 W/m2
22:39 40.4 °F /  4.7 °C 31.8 °F /  -0.1 °C 30.27in /  1024.9hPa NW 0.2mph /  0.3km/h 3mph /  4.8km/h 71% 0.00in /  0mm 0 W/m2
22:44 40.5 °F /  4.7 °C 31.8 °F /  -0.1 °C 30.27in /  1024.9hPa NW 0.4mph /  0.6km/h 4mph /  6.4km/h 71% 0.00in /  0mm 0 W/m2
22:49 40.6 °F /  4.8 °C 31.9 °F /  -0.1 °C 30.28in /  1025.3hPa NNE 0.3mph /  0.5km/h 4mph /  6.4km/h 71% 0.00in /  0mm 0 W/m2
22:54 40.7 °F /  4.8 °C 32 °F /  0 °C 30.28in /  1025.3hPa Calm   4mph /  6.4km/h 71% 0.00in /  0mm 0 W/m2
22:59 40.6 °F /  4.8 °C 32 °F /  0 °C 30.28in /  1025.3hPa Calm   4mph /  6.4km/h 71% 0.00in /  0mm 0 W/m2
23:04 40.6 °F /  4.8 °C 31.9 °F /  -0.1 °C 30.28in /  1025.3hPa Calm   4mph /  6.4km/h 71% 0.00in /  0mm 0 W/m2
23:09 40.4 °F /  4.7 °C 31.9 °F /  -0.1 °C 30.28in /  1025.3hPa North 0.5mph /  0.8km/h 4mph /  6.4km/h 71.2% 0.00in /  0mm 0 W/m2
23:14 40.3 °F /  4.6 °C 32.1 °F /  0.1 °C 30.28in /  1025.3hPa North 0.1mph /  0.2km/h 4mph /  6.4km/h 72.1% 0.00in /  0mm 0 W/m2
23:19 40.3 °F /  4.6 °C 32.2 °F /  0.1 °C 30.28in /  1025.3hPa NNW 1.1mph /  1.8km/h 5mph /  8km/h 72.7% 0.00in /  0mm 0 W/m2
23:24 40.4 °F /  4.7 °C 32.4 °F /  0.2 °C 30.28in /  1025.3hPa NNW 0.4mph /  0.6km/h 7mph /  11.3km/h 73% 0.00in /  0mm 0 W/m2
23:29 40.4 °F /  4.7 °C 32.4 °F /  0.2 °C 30.28in /  1025.3hPa NNW 0.2mph /  0.3km/h 7mph /  11.3km/h 73% 0.00in /  0mm 0 W/m2
23:34 40.4 °F /  4.7 °C 32.5 °F /  0.3 °C 30.29in /  1025.6hPa NNW 0.6mph /  1km/h 7mph /  11.3km/h 73% 0.00in /  0mm 0 W/m2
23:39 40.5 °F /  4.7 °C 32.6 °F /  0.3 °C 30.29in /  1025.6hPa NW 1mph /  1.6km/h 4mph /  6.4km/h 73% 0.00in /  0mm 0 W/m2
23:44 40.6 °F /  4.8 °C 32.6 °F /  0.3 °C 30.29in /  1025.6hPa NW 0.3mph /  0.5km/h 4mph /  6.4km/h 73% 0.00in /  0mm 0 W/m2
23:45 40.6 °F /  4.8 °C 32.6 °F /  0.3 °C 30.29in /  1025.6hPa Calm   4mph /  6.4km/h 73% 0.00in /  0mm 0 W/m2
Hartford County Weather
Compliments of Weather Underground - 2 mb